METAR Data
IDs: Format: Raw Decoded Include TAF

Data at: 2203 UTC 18 Sep 2018

KSEP 182155Z AUTO 15006KT 10SM CLR 32/19 A2997 RMK AO2 T03160188
KSEP 182135Z AUTO 19005KT 10SM CLR 32/19 A2997 RMK AO2 T03210187
KSEP 182115Z AUTO 19005KT 10SM SCT055 SCT120 32/18 A2997 RMK AO2 T03190184
KSEP 182055Z AUTO 16008KT 10SM SCT055 33/19 A2998 RMK AO2 T03260188
KSEP 182035Z AUTO 17006KT 10SM CLR 33/19 A2999 RMK AO2 T03250187
KSEP 182015Z AUTO 17008KT 10SM SCT050 33/19 A2999 RMK AO2 T03260190
KSEP 181955Z AUTO 20009KT 160V220 10SM SCT050 33/19 A3000 RMK AO2 T03260191
KSEP 181935Z AUTO 18006KT 10SM SCT050 32/20 A3001 RMK AO2 T03240196
KSEP 181915Z AUTO 13008KT 10SM CLR 32/19 A3001 RMK AO2 T03230185
KSEP 181855Z AUTO 18007KT 10SM CLR 32/19 A3002 RMK AO2 T03210189
KSEP 181835Z AUTO 16007KT 10SM CLR 32/19 A3003 RMK AO2 T03190188
KSEP 181815Z AUTO 21004KT 10SM CLR 32/20 A3004 RMK AO2 T03160196
KSEP 181755Z AUTO 16009KT 10SM CLR 31/19 A3004 RMK AO2 T03130193 10315 20216
KSEP 181735Z AUTO 18006KT 10SM CLR 31/20 A3006 RMK AO2 T03110201
KSEP 181715Z AUTO 18007KT 10SM CLR 31/20 A3006 RMK AO2 T03070199
KSEP 181655Z AUTO 18007KT 10SM CLR 30/20 A3007 RMK AO2 T03040197
KSEP 181635Z AUTO 19006KT 10SM CLR 30/20 A3007 RMK AO2 T03020204
KSEP 181615Z AUTO 22006KT 10SM CLR 30/21 A3008 RMK AO2 T02990207
KSEP 181555Z AUTO 22005KT 10SM CLR 30/21 A3008 RMK AO2 T02950209
KSEP 181535Z AUTO 22006KT 10SM CLR 29/21 A3008 RMK AO2 T02880210
KSEP 181515Z AUTO 22007KT 10SM CLR 28/21 A3008 RMK AO2 T02820212
KSEP 181455Z AUTO 23007KT 10SM CLR 28/22 A3007 RMK AO2 T02750215
KSEP 181435Z AUTO 23006KT 10SM CLR 27/22 A3007 RMK AO2 T02670215
KSEP 181415Z AUTO 23004KT 10SM CLR 26/21 A3007 RMK AO2 T02600212
KSEP 181355Z AUTO 00000KT 10SM CLR 25/21 A3007 RMK AO2 T02490209
KSEP 181335Z AUTO 00000KT 10SM CLR 24/20 A3007 RMK AO2 T02400204
KSEP 181315Z AUTO 00000KT 10SM CLR 23/20 A3007 RMK AO2 T02300201
KSEP 181255Z AUTO 00000KT 10SM CLR 22/20 A3007 RMK AO2 T02210196
KSEP 181235Z AUTO 00000KT 10SM CLR 22/19 A3006 RMK AO2 T02160193
KSEP 181215Z AUTO 00000KT 10SM CLR 22/19 A3006 RMK AO2 T02230192
KSEP 181155Z AUTO 00000KT 10SM CLR 23/19 A3006 RMK AO2 T02280193 10242 20222
KSEP 181135Z AUTO 00000KT 10SM CLR 22/20 A3005 RMK AO2 T02230195
KSEP 181115Z AUTO 00000KT 10SM CLR 23/20 A3005 RMK AO2 T02270197
KSEP 181055Z AUTO 00000KT 10SM CLR 23/20 A3004 RMK AO2 T02250197
KSEP 181035Z AUTO 00000KT 10SM SCT095 23/20 A3004 RMK AO2 T02280198
KSEP 181015Z AUTO 00000KT 10SM CLR 23/20 A3004 RMK AO2 T02260201
KSEP 180955Z AUTO 00000KT 10SM CLR 23/20 A3004 RMK AO2 T02260199
KSEP 180935Z AUTO 00000KT 10SM CLR 23/20 A3003 RMK AO2 T02280201
KSEP 180915Z AUTO 00000KT 10SM CLR 23/20 A3003 RMK AO2 T02300200
KSEP 180855Z AUTO 00000KT 10SM CLR 23/20 A3003 RMK AO2 T02320197
KSEP 180835Z AUTO 00000KT 10SM CLR 23/20 A3004 RMK AO2 T02340200
KSEP 180815Z AUTO 00000KT 10SM CLR 23/20 A3004 RMK AO2 T02340199
KSEP 180755Z AUTO 00000KT 10SM CLR 24/20 A3004 RMK AO2 T02350198
KSEP 180735Z AUTO 00000KT 10SM CLR 24/20 A3004 RMK AO2 T02380196
KSEP 180715Z AUTO 00000KT 10SM CLR 24/20 A3004 RMK AO2 T02380196
KSEP 180655Z AUTO 00000KT 10SM CLR 24/20 A3004 RMK AO2 T02360197
KSEP 180635Z AUTO 00000KT 10SM CLR 23/20 A3004 RMK AO2 T02340200
KSEP 180615Z AUTO 00000KT 10SM CLR 23/20 A3005 RMK AO2 T02340198
KSEP 180555Z AUTO 00000KT 10SM CLR 24/20 A3004 RMK AO2 T02430196 10305 20242 403250216
KSEP 180535Z AUTO 00000KT 10SM CLR 25/20 A3004 RMK AO2 T02450195
KSEP 180515Z AUTO 00000KT 10SM CLR 25/20 A3004 RMK AO2 T02450196
KSEP 180455Z AUTO 00000KT 10SM CLR 25/20 A3004 RMK AO2 T02460200
KSEP 180435Z AUTO 00000KT 10SM CLR 24/20 A3004 RMK AO2 T02440198
KSEP 180415Z AUTO 00000KT 10SM CLR 25/20 A3003 RMK AO2 T02480197
KSEP 180355Z AUTO 00000KT 10SM CLR 25/20 A3003 RMK AO2 T02460201
KSEP 180335Z AUTO 00000KT 10SM CLR 25/20 A3003 RMK AO2 T02540196
KSEP 180315Z AUTO 00000KT 10SM CLR 26/20 A3003 RMK AO2 T02560198
KSEP 180255Z AUTO 00000KT 10SM CLR 26/19 A3003 RMK AO2 T02610193
KSEP 180235Z AUTO 00000KT 10SM CLR 26/20 A3002 RMK AO2 T02630195
KSEP 180215Z AUTO 00000KT 10SM CLR 27/20 A3001 RMK AO2 T02650195
KSEP 180155Z AUTO 00000KT 10SM SCT060 SCT095 SCT120 27/20 A3000 RMK AO2 T02660195
KSEP 180135Z AUTO 00000KT 10SM SCT060 SCT095 SCT120 27/20 A3000 RMK AO2 T02700197
KSEP 180115Z AUTO 00000KT 10SM CLR 28/20 A2999 RMK AO2 T02750196
KSEP 180055Z AUTO 00000KT 10SM SCT110 28/19 A2999 RMK AO2 T02800191
KSEP 180035Z AUTO 00000KT 10SM SCT110 29/19 A2999 RMK AO2 T02860190
KSEP 180015Z AUTO 00000KT 10SM CLR 30/19 A2998 RMK AO2 T02960190
KSEP 172355Z AUTO 12005KT 10SM SCT055 31/19 A2998 RMK AO2 T03050185 10325 20300
KSEP 172335Z AUTO 15003KT 10SM SCT055 SCT120 31/19 A2998 RMK AO2 T03130189
KSEP 172315Z AUTO 00000KT 10SM CLR 30/19 A2998 RMK AO2 T03000188
KSEP 172255Z AUTO 00000KT 10SM CLR 32/18 A2998 RMK AO2 T03180180
KSEP 172235Z AUTO 00000KT 10SM CLR 32/18 A2998 RMK AO2 T03200182
KSEP 172215Z AUTO 16003KT 10SM CLR 32/18 A2998 RMK AO2 T03200178
KSEP 172155Z AUTO 00000KT 10SM SCT055 31/18 A2999 RMK AO2 T03100179
KSEP 172135Z AUTO 17008KT 10SM CLR 33/18 A2999 RMK AO2 T03250181
KSEP 172115Z AUTO 00000KT 10SM CLR 31/18 A3000 RMK AO2 T03120183
KSEP 172055Z AUTO 00000KT 10SM SCT055 SCT075 30/18 A3000 RMK AO2 T03020182
KSEP 172035Z AUTO 00000KT 10SM SCT055 SCT075 30/18 A3001 RMK AO2 T03020180
KSEP 172015Z AUTO 19003KT 10SM SCT055 31/18 A3001 RMK AO2 T03050179
KSEP 171955Z AUTO 17007KT 10SM SCT055 31/17 A3002 RMK AO2 T03130174
KSEP 171935Z AUTO 23006KT 10SM CLR 32/18 A3002 RMK AO2 T03210179
KSEP 171915Z AUTO 00000KT 10SM CLR 32/17 A3003 RMK AO2 T03190171
KSEP 171855Z AUTO 18003KT 10SM CLR 32/18 A3004 RMK AO2 T03170177
KSEP 171835Z AUTO 18003KT 10SM CLR 32/18 A3005 RMK AO2 T03160177
KSEP 171815Z AUTO 16006KT 10SM CLR 32/18 A3006 RMK AO2 T03160179
KSEP 171755Z AUTO 22005KT 10SM CLR 31/18 A3006 RMK AO2 T03100178 10310 20216
KSEP 171735Z AUTO 22003KT 10SM CLR 30/18 A3007 RMK AO2 T03040182
KSEP 171715Z AUTO 20004KT 10SM CLR 30/18 A3007 RMK AO2 T03010180
KSEP 171655Z AUTO 22006KT 10SM CLR 29/18 A3008 RMK AO2 T02930183
KSEP 171635Z AUTO 21007KT 10SM CLR 29/18 A3008 RMK AO2 T02920183
KSEP 171615Z AUTO 23005KT 10SM CLR 29/19 A3008 RMK AO2 T02890185
KSEP 171555Z AUTO 22007KT 10SM CLR 28/19 A3008 RMK AO2 T02790192
KSEP 171535Z AUTO 21007KT 10SM CLR 27/19 A3008 RMK AO2 T02720194
KSEP 171515Z AUTO 21005KT 10SM CLR 26/20 A3008 RMK AO2 T02600201
KSEP 171455Z AUTO 00000KT 10SM CLR 25/20 A3008 RMK AO2 T02480204
KSEP 171435Z AUTO 00000KT 10SM CLR 24/20 A3007 RMK AO2 T02400202
KSEP 171415Z AUTO 00000KT 10SM CLR 24/21 A3007 RMK AO2 T02390209
KSEP 171355Z AUTO 00000KT 10SM CLR 23/21 A3006 RMK AO2 T02320211
KSEP 171335Z AUTO 00000KT 10SM CLR 23/20 A3006 RMK AO2 T02250203
KSEP 171315Z AUTO 00000KT 10SM CLR 22/20 A3005 RMK AO2 T02210202
KSEP 171255Z AUTO 00000KT 10SM CLR 22/20 A3004 RMK AO2 T02190201
KSEP 171235Z AUTO 00000KT 10SM CLR 22/20 A3004 RMK AO2 T02160200
KSEP 171215Z AUTO 00000KT 10SM CLR 22/20 A3003 RMK AO2 T02160200
KSEP 171155Z AUTO 00000KT 10SM CLR 22/20 A3003 RMK AO2 T02160200 10241 20216
KSEP 171135Z AUTO 00000KT 10SM CLR 22/20 A3002 RMK AO2 T02180201
KSEP 171115Z AUTO 00000KT 10SM CLR 22/21 A3002 RMK AO2 T02220205
KSEP 171055Z AUTO 00000KT 10SM CLR 22/21 A3001 RMK AO2 T02210205
KSEP 171035Z AUTO 00000KT 10SM CLR 22/21 A3001 RMK AO2 T02210205
KSEP 171015Z AUTO 00000KT 10SM CLR 22/21 A3001 RMK AO2 T02220205